Time;durP1;ratioP1;P1;durP2;ratioP2;P2;SDS_P1;SDS_P2;PMS_P1;PMS_P2;Temp;Humidity;BMP_temperature;BMP_pressure;BME280_temperature;BME280_humidity;BME280_pressure;Samples;Min_cycle;Max_cycle;Signal;HPM_P1;HPM_P2
2022/07/09 00:00:06;;;;;;;4.07;3.33;;;22.50;99.90;;;;;;1042675;28;20029;-68
2022/07/09 00:00:36;;;;;;;4.93;3.78;;;22.50;99.90;;;;;;1042794;28;20391;-66
2022/07/09 00:01:07;;;;;;;5.30;4.47;;;22.50;99.90;;;;;;1038549;28;20477;-69
2022/07/09 00:01:38;;;;;;;3.60;3.27;;;22.50;99.90;;;;;;1038793;28;20025;-66
2022/07/09 00:02:08;;;;;;;4.23;3.60;;;22.50;99.90;;;;;;1038736;28;20147;-66
2022/07/09 00:02:39;;;;;;;3.87;3.47;;;22.50;99.90;;;;;;1038863;28;20018;-67
2022/07/09 00:03:10;;;;;;;5.67;4.13;;;22.50;99.90;;;;;;1038643;28;20447;-68
2022/07/09 00:03:41;;;;;;;4.40;4.00;;;22.50;99.90;;;;;;1038622;28;20095;-68
2022/07/09 00:04:11;;;;;;;4.17;3.77;;;22.50;99.90;;;;;;1034616;28;20021;-67
2022/07/09 00:04:42;;;;;;;4.87;3.77;;;22.50;99.90;;;;;;1034646;28;20709;-68
2022/07/09 00:05:13;;;;;;;3.60;3.30;;;22.50;99.90;;;;;;1039079;28;20033;-67
2022/07/09 00:05:44;;;;;;;4.22;3.72;;;22.50;99.90;;;;;;1042637;28;20055;-68
2022/07/09 00:06:14;;;;;;;4.57;4.10;;;22.50;99.90;;;;;;1042693;28;20128;-68
2022/07/09 00:06:46;;;;;;;5.40;3.57;;;22.50;99.90;;;;;;1042618;28;20112;-67
2022/07/09 00:07:17;;;;;;;3.92;3.42;;;22.50;99.90;;;;;;1042786;28;20025;-67
2022/07/09 00:07:47;;;;;;;4.75;4.05;;;22.50;99.90;;;;;;1043022;28;20081;-68
2022/07/09 00:08:18;;;;;;;4.60;4.20;;;22.50;99.90;;;;;;1046641;28;20101;-67
2022/07/09 00:08:48;;;;;;;4.27;3.73;;;22.50;99.90;;;;;;1038482;28;20056;-68
2022/07/09 00:09:19;;;;;;;3.77;3.47;;;22.50;99.90;;;;;;1038829;28;20563;-68
2022/07/09 00:09:51;;;;;;;4.93;4.43;;;22.50;99.90;;;;;;1042682;28;20120;-67
2022/07/09 00:10:22;;;;;;;4.18;3.25;;;22.50;99.90;;;;;;1042116;28;20499;-67
2022/07/09 00:10:53;;;;;;;4.17;3.77;;;22.50;99.90;;;;;;1042612;28;20481;-68
2022/07/09 00:11:23;;;;;;;4.27;3.53;;;22.50;99.90;;;;;;1042482;28;20035;-67
2022/07/09 00:11:54;;;;;;;3.70;3.40;;;22.50;99.90;;;;;;1042687;28;20643;-67
2022/07/09 00:12:25;;;;;;;3.60;3.27;;;22.50;99.90;;;;;;1047099;28;20016;-67
2022/07/09 00:12:55;;;;;;;5.60;4.00;;;22.40;99.90;;;;;;1047066;28;20500;-68
2022/07/09 00:13:26;;;;;;;5.83;3.70;;;22.50;99.90;;;;;;1046881;28;20028;-67
2022/07/09 00:13:57;;;;;;;4.93;3.67;;;22.40;99.90;;;;;;1042616;28;20440;-67
2022/07/09 00:14:29;;;;;;;3.83;3.40;;;22.40;99.90;;;;;;1042948;28;20771;-67
2022/07/09 00:15:00;;;;;;;5.65;3.95;;;22.40;99.90;;;;;;1038698;28;20780;-67
2022/07/09 00:15:30;;;;;;;4.73;4.00;;;22.40;99.90;;;;;;1043253;28;20358;-67
2022/07/09 00:16:01;;;;;;;4.07;3.47;;;22.40;99.90;;;;;;1046647;28;20075;-67
2022/07/09 00:16:32;;;;;;;3.50;3.20;;;22.40;99.90;;;;;;1047058;28;20020;-67
2022/07/09 00:17:03;;;;;;;3.97;3.65;;;22.40;99.90;;;;;;1047092;28;20013;-68
2022/07/09 00:17:34;;;;;;;4.30;3.83;;;22.40;99.90;;;;;;1047121;28;20024;-68
2022/07/09 00:18:04;;;;;;;4.43;3.70;;;22.40;99.90;;;;;;1046624;28;20197;-68
2022/07/09 00:18:35;;;;;;;4.10;3.70;;;22.40;99.90;;;;;;1046824;28;20033;-68
2022/07/09 00:19:05;;;;;;;4.17;3.77;;;22.40;99.90;;;;;;1046704;28;20031;-66
2022/07/09 00:19:36;;;;;;;4.00;3.60;;;22.40;99.90;;;;;;1042889;28;20033;-66
2022/07/09 00:20:08;;;;;;;5.38;4.15;;;22.40;99.90;;;;;;1042405;28;20060;-67
2022/07/09 00:20:39;;;;;;;4.07;3.50;;;22.40;99.90;;;;;;1042676;28;20048;-67
2022/07/09 00:21:09;;;;;;;4.27;3.40;;;22.40;99.90;;;;;;1042535;28;20021;-67
2022/07/09 00:21:40;;;;;;;4.27;3.43;;;22.40;99.90;;;;;;1042998;28;20017;-67
2022/07/09 00:22:11;;;;;;;4.47;3.80;;;22.40;99.90;;;;;;1046790;28;20021;-67
2022/07/09 00:22:42;;;;;;;3.80;3.40;;;22.40;99.90;;;;;;1042805;28;20508;-68
2022/07/09 00:23:12;;;;;;;5.83;4.03;;;22.40;99.90;;;;;;1046709;28;20254;-67
2022/07/09 00:23:43;;;;;;;4.07;3.30;;;22.40;99.90;;;;;;1046963;28;20254;-67
2022/07/09 00:24:13;;;;;;;3.90;3.53;;;22.30;99.90;;;;;;1042644;28;20074;-68
2022/07/09 00:24:44;;;;;;;4.60;3.80;;;22.40;99.90;;;;;;1042763;28;20067;-68
2022/07/09 00:25:14;;;;;;;4.30;3.90;;;22.30;99.90;;;;;;1042360;28;20021;-67
2022/07/09 00:25:45;;;;;;;4.13;3.80;;;22.30;99.90;;;;;;1042636;28;20748;-67
2022/07/09 00:26:18;;;;;;;4.30;3.40;;;22.30;99.90;;;;;;1042900;28;20017;-68
2022/07/09 00:26:49;;;;;;;4.50;3.83;;;22.30;99.90;;;;;;1043184;28;20036;-67
2022/07/09 00:27:19;;;;;;;4.00;3.60;;;22.30;99.90;;;;;;1046678;28;20115;-68
2022/07/09 00:27:50;;;;;;;3.93;3.47;;;22.30;99.90;;;;;;1046978;28;20131;-67
2022/07/09 00:28:20;;;;;;;4.23;3.47;;;22.30;99.90;;;;;;1046817;28;20027;-68
2022/07/09 00:28:51;;;;;;;3.50;3.20;;;22.30;99.90;;;;;;1047155;28;20024;-67
2022/07/09 00:29:23;;;;;;;4.83;3.40;;;22.30;99.90;;;;;;1047252;28;20111;-68
2022/07/09 00:29:54;;;;;;;3.95;3.38;;;22.30;99.90;;;;;;1046477;28;20692;-67
2022/07/09 00:30:24;;;;;;;5.60;4.00;;;22.30;99.90;;;;;;1047066;28;20549;-66
2022/07/09 00:30:55;;;;;;;4.73;4.07;;;22.30;99.90;;;;;;1046688;28;20552;-66
2022/07/09 00:31:26;;;;;;;4.30;3.90;;;22.30;99.90;;;;;;1047016;28;20111;-68
2022/07/09 00:31:56;;;;;;;3.93;3.50;;;22.30;99.90;;;;;;1046723;28;20748;-66
2022/07/09 00:32:27;;;;;;;3.83;3.43;;;22.30;99.90;;;;;;1046949;28;20028;-67
2022/07/09 00:32:57;;;;;;;4.37;3.63;;;22.30;99.90;;;;;;1046808;28;20294;-66
2022/07/09 00:33:28;;;;;;;3.60;3.20;;;22.30;99.90;;;;;;1047332;28;20478;-66
2022/07/09 00:33:59;;;;;;;3.93;3.53;;;22.30;99.90;;;;;;1046898;28;20108;-66
2022/07/09 00:34:29;;;;;;;4.00;3.50;;;22.30;99.90;;;;;;1047216;28;20020;-67
2022/07/09 00:35:00;;;;;;;4.93;3.70;;;22.30;99.90;;;;;;1046464;28;20106;-67
2022/07/09 00:35:30;;;;;;;4.27;3.40;;;22.30;99.90;;;;;;1046856;28;20078;-67
2022/07/09 00:36:01;;;;;;;6.33;3.73;;;22.30;99.90;;;;;;1046612;28;20498;-67
2022/07/09 00:36:32;;;;;;;5.70;3.90;;;22.30;99.90;;;;;;1046847;28;20024;-68
2022/07/09 00:37:03;;;;;;;3.67;3.00;;;22.30;99.90;;;;;;1046689;28;20033;-67
2022/07/09 00:37:33;;;;;;;4.37;3.73;;;22.30;99.90;;;;;;1046849;28;20024;-68
2022/07/09 00:38:04;;;;;;;5.53;3.87;;;22.30;99.90;;;;;;1047133;28;20042;-66
2022/07/09 00:38:34;;;;;;;5.13;3.60;;;22.30;99.90;;;;;;1047283;28;20028;-68
2022/07/09 00:39:05;;;;;;;4.57;3.30;;;22.30;99.90;;;;;;1047163;28;20098;-67
2022/07/09 00:39:36;;;;;;;4.90;3.60;;;22.30;99.90;;;;;;1047308;28;20054;-68
2022/07/09 00:40:07;;;;;;;5.00;3.63;;;22.30;99.90;;;;;;1047025;28;20475;-67
2022/07/09 00:40:38;;;;;;;5.25;3.55;;;22.30;99.90;;;;;;1047088;28;20052;-67
2022/07/09 00:41:08;;;;;;;4.65;3.65;;;22.30;99.90;;;;;;1047221;28;20013;-67
2022/07/09 00:41:39;;;;;;;4.93;3.90;;;22.30;99.90;;;;;;1047144;28;20020;-66
2022/07/09 00:42:12;;;;;;;4.43;4.03;;;22.30;99.90;;;;;;1047104;28;20484;-67
2022/07/09 00:42:42;;;;;;;3.75;3.33;;;22.30;99.90;;;;;;1047258;28;20024;-66
2022/07/09 00:43:21;;;;;;;6.70;3.60;;;22.30;99.90;;;;;;1046913;28;20021;-67
2022/07/09 00:43:52;;;;;;;3.88;3.17;;;22.20;99.90;;;;;;1046793;28;20024;-67
2022/07/09 00:44:23;;;;;;;3.80;3.40;;;22.30;99.90;;;;;;1046480;28;20135;-66
2022/07/09 00:44:53;;;;;;;4.30;3.60;;;22.30;99.90;;;;;;1042713;28;20112;-66
2022/07/09 00:45:24;;;;;;;4.13;3.17;;;22.20;99.90;;;;;;1042551;28;20452;-67
2022/07/09 00:45:54;;;;;;;4.03;3.50;;;22.20;99.90;;;;;;1042744;28;20427;-66
2022/07/09 00:46:25;;;;;;;4.43;2.90;;;22.20;99.90;;;;;;1042541;28;20032;-66
2022/07/09 00:46:55;;;;;;;3.97;3.17;;;22.20;99.90;;;;;;1046948;28;20107;-67
2022/07/09 00:47:26;;;;;;;4.10;3.47;;;22.20;99.90;;;;;;1046685;28;20028;-68
2022/07/09 00:47:57;;;;;;;3.77;3.23;;;22.20;99.90;;;;;;1047279;28;20020;-67
2022/07/09 00:48:27;;;;;;;4.67;3.80;;;22.20;99.90;;;;;;1046565;28;20208;-67
2022/07/09 00:49:03;;;;;;;4.53;3.43;;;22.20;99.90;;;;;;1046822;28;20439;-66
2022/07/09 00:49:42;;;;;;;6.70;3.92;;;22.20;99.90;;;;;;1046465;28;20029;-67
2022/07/09 00:50:14;;;;;;;4.13;3.72;;;22.20;99.90;;;;;;1047033;28;20367;-67
2022/07/09 00:50:45;;;;;;;4.05;3.65;;;22.20;99.90;;;;;;1046546;28;20331;-66
2022/07/09 00:51:18;;;;;;;5.70;3.77;;;22.20;99.90;;;;;;1045317;28;20492;-67
2022/07/09 00:51:48;;;;;;;4.60;3.53;;;22.20;99.90;;;;;;1042575;28;20508;-66
2022/07/09 00:52:19;;;;;;;4.97;3.37;;;22.10;99.90;;;;;;1046772;28;20029;-66
2022/07/09 00:52:50;;;;;;;3.50;3.20;;;22.10;99.90;;;;;;1046728;28;20096;-67
2022/07/09 00:53:24;;;;;;;4.97;4.00;;;22.10;99.90;;;;;;1046710;28;20535;-67
2022/07/09 00:53:55;;;;;;;3.85;3.55;;;22.10;99.90;;;;;;1046579;28;20021;-67
2022/07/09 00:54:27;;;;;;;4.38;3.38;;;22.10;99.90;;;;;;1046782;28;20233;-66
2022/07/09 00:55:00;;;;;;;4.15;3.38;;;21.90;99.90;;;;;;1046474;28;20027;-67
2022/07/09 00:55:31;;;;;;;4.60;3.70;;;22.10;99.90;;;;;;1046929;28;20103;-66
2022/07/09 00:56:03;;;;;;;4.13;3.22;;;22.10;99.90;;;;;;1045788;28;20044;-67
2022/07/09 00:56:34;;;;;;;4.55;3.58;;;22.10;99.90;;;;;;1046784;28;20452;-67
2022/07/09 00:57:07;;;;;;;4.07;2.97;;;22.10;99.90;;;;;;1046760;28;20013;-67
2022/07/09 00:57:40;;;;;;;3.92;3.22;;;22.10;99.90;;;;;;1046894;28;20512;-67
2022/07/09 00:58:12;;;;;;;4.40;3.72;;;22.10;99.90;;;;;;1046643;28;20020;-67
2022/07/09 00:58:44;;;;;;;5.47;3.85;;;22.10;99.90;;;;;;1046794;28;20024;-67
2022/07/09 00:59:18;;;;;;;4.07;3.50;;;22.10;99.90;;;;;;1046568;28;20379;-67
2022/07/09 00:59:49;;;;;;;4.38;3.50;;;22.10;99.90;;;;;;1046891;28;20024;-66
2022/07/09 01:00:19;;;;;;;3.53;3.23;;;22.10;99.90;;;;;;1046712;28;20044;-67
2022/07/09 01:00:50;;;;;;;4.67;3.50;;;22.10;99.90;;;;;;1046441;28;20100;-66
2022/07/09 01:01:21;;;;;;;5.20;3.72;;;22.00;99.90;;;;;;1042577;28;20662;-66
2022/07/09 01:01:53;;;;;;;4.78;3.47;;;22.00;99.90;;;;;;1047026;28;20025;-66
2022/07/09 01:02:23;;;;;;;3.90;3.50;;;22.00;99.90;;;;;;1047004;28;20017;-67
2022/07/09 01:02:55;;;;;;;3.33;3.03;;;22.00;99.90;;;;;;1047108;28;20031;-67
2022/07/09 01:03:25;;;;;;;4.60;3.28;;;22.00;99.90;;;;;;1047101;28;20019;-67
2022/07/09 01:03:56;;;;;;;3.93;3.53;;;22.00;99.90;;;;;;1047230;28;20051;-66
2022/07/09 01:04:26;;;;;;;6.00;4.00;;;22.00;99.90;;;;;;1046504;28;20534;-66
2022/07/09 01:04:57;;;;;;;4.47;3.17;;;22.00;99.90;;;;;;1046913;28;20028;-68
2022/07/09 01:05:35;;;;;;;3.87;3.40;;;22.00;99.90;;;;;;1046527;28;20727;-67
2022/07/09 01:06:05;;;;;;;5.88;3.47;;;22.00;99.90;;;;;;1046953;28;20021;-66
2022/07/09 01:06:36;;;;;;;4.57;3.47;;;22.00;99.90;;;;;;1046390;28;20713;-67
2022/07/09 01:07:06;;;;;;;4.27;3.40;;;22.00;99.90;;;;;;1046946;28;20579;-67
2022/07/09 01:07:37;;;;;;;3.47;3.10;;;22.00;99.90;;;;;;1046574;28;20233;-68
2022/07/09 01:08:08;;;;;;;4.10;3.17;;;22.00;99.90;;;;;;1046933;28;20021;-66
2022/07/09 01:08:39;;;;;;;4.10;3.70;;;22.00;99.90;;;;;;1046979;28;20427;-66
2022/07/09 01:09:09;;;;;;;4.20;3.63;;;22.00;99.90;;;;;;1047319;28;20473;-66
2022/07/09 01:09:41;;;;;;;3.40;3.10;;;22.00;99.90;;;;;;1047032;28;20021;-66
2022/07/09 01:10:12;;;;;;;3.20;2.90;;;22.00;99.90;;;;;;1047375;28;20059;-67
2022/07/09 01:10:44;;;;;;;3.60;3.03;;;22.00;99.90;;;;;;1046743;28;20107;-67
2022/07/09 01:11:15;;;;;;;4.05;3.65;;;22.00;99.90;;;;;;1046785;28;20067;-66
2022/07/09 01:11:47;;;;;;;3.93;3.43;;;22.00;99.90;;;;;;1046083;28;20051;-67
2022/07/09 01:12:18;;;;;;;4.30;3.00;;;22.00;99.90;;;;;;1046980;28;20259;-66
2022/07/09 01:12:49;;;;;;;4.88;3.00;;;22.00;99.90;;;;;;1046429;28;20071;-67
2022/07/09 01:13:19;;;;;;;3.93;2.83;;;22.00;99.90;;;;;;1046700;28;20070;-66
2022/07/09 01:13:50;;;;;;;3.83;3.43;;;22.00;99.90;;;;;;1046671;28;20039;-66
2022/07/09 01:14:22;;;;;;;3.22;2.92;;;22.00;99.90;;;;;;1046854;28;20532;-67
2022/07/09 01:14:52;;;;;;;3.53;3.22;;;22.00;99.90;;;;;;1046699;28;20687;-67
2022/07/09 01:15:23;;;;;;;3.97;3.47;;;22.00;99.90;;;;;;1047241;28;20091;-67
2022/07/09 01:15:54;;;;;;;4.37;3.73;;;22.00;99.90;;;;;;1047026;28;20025;-67
2022/07/09 01:16:32;;;;;;;3.45;3.15;;;22.00;99.90;;;;;;1046799;28;20483;-67
2022/07/09 01:17:05;;;;;;;4.07;3.38;;;22.00;99.90;;;;;;1046672;28;20067;-66
2022/07/09 01:17:42;;;;;;;4.50;3.30;;;22.00;99.90;;;;;;1046755;28;20016;-67
2022/07/09 01:18:13;;;;;;;3.75;3.30;;;22.00;99.90;;;;;;1046666;28;20020;-68
2022/07/09 01:18:45;;;;;;;5.70;3.55;;;22.00;99.90;;;;;;1047023;28;20024;-66
2022/07/09 01:19:16;;;;;;;4.13;3.25;;;22.00;99.90;;;;;;1046282;28;20589;-67
2022/07/09 01:19:46;;;;;;;3.60;3.30;;;22.00;99.90;;;;;;1046742;28;20557;-67
2022/07/09 01:20:21;;;;;;;6.10;3.50;;;22.00;99.90;;;;;;1046562;28;20028;-67
2022/07/09 01:20:52;;;;;;;5.43;3.88;;;21.20;99.90;;;;;;1046868;28;20052;-67
2022/07/09 01:21:23;;;;;;;4.00;3.40;;;22.00;99.90;;;;;;1046771;28;20024;-68
2022/07/09 01:21:54;;;;;;;3.80;3.50;;;22.00;99.90;;;;;;1046600;28;20808;-68
2022/07/09 01:22:25;;;;;;;4.03;3.30;;;22.00;99.90;;;;;;1046727;28;20154;-67
2022/07/09 01:22:56;;;;;;;4.40;3.73;;;22.00;99.90;;;;;;1042684;28;20060;-67
2022/07/09 01:23:27;;;;;;;3.88;3.50;;;22.00;99.90;;;;;;1042655;28;20551;-67
2022/07/09 01:23:57;;;;;;;4.27;3.50;;;22.00;99.90;;;;;;1046911;28;20537;-67
2022/07/09 01:24:28;;;;;;;3.70;3.30;;;21.90;99.90;;;;;;1046517;28;20757;-67
2022/07/09 01:25:01;;;;;;;3.63;3.00;;;21.90;99.90;;;;;;1046773;28;20028;-67
2022/07/09 01:25:35;;;;;;;4.50;3.88;;;21.90;99.90;;;;;;1046644;28;20122;-66
2022/07/09 01:26:07;;;;;;;3.83;3.42;;;21.90;99.90;;;;;;1046998;28;20013;-67
2022/07/09 01:26:38;;;;;;;4.05;3.35;;;21.90;99.90;;;;;;1047101;28;20070;-66
2022/07/09 01:27:09;;;;;;;5.20;3.05;;;21.90;99.90;;;;;;1047193;28;20120;-67
2022/07/09 01:27:40;;;;;;;5.23;3.53;;;21.90;99.90;;;;;;1046962;28;20157;-66
2022/07/09 01:28:11;;;;;;;3.80;3.40;;;21.90;99.90;;;;;;1046721;28;20267;-65
2022/07/09 01:28:42;;;;;;;4.70;3.75;;;21.90;99.90;;;;;;1046595;28;20023;-66
2022/07/09 01:29:12;;;;;;;3.78;3.35;;;21.90;99.90;;;;;;1046722;28;20042;-66
2022/07/09 01:29:49;;;;;;;3.93;3.33;;;21.90;99.90;;;;;;1046551;28;20221;-66
2022/07/09 01:30:27;;;;;;;3.97;3.13;;;21.90;99.90;;;;;;1046784;28;20035;-66
2022/07/09 01:30:57;;;;;;;4.18;3.40;;;21.90;99.90;;;;;;1044910;28;20021;-65
2022/07/09 01:31:28;;;;;;;4.83;3.33;;;21.90;99.90;;;;;;1044563;28;20031;-67
2022/07/09 01:31:58;;;;;;;4.03;3.27;;;21.90;99.90;;;;;;1046815;28;20052;-67
2022/07/09 01:32:29;;;;;;;3.70;3.27;;;21.80;99.90;;;;;;1047124;28;20067;-67
2022/07/09 01:33:00;;;;;;;4.77;2.97;;;21.90;99.90;;;;;;1046979;28;20029;-66
2022/07/09 01:33:31;;;;;;;4.38;3.30;;;21.80;99.90;;;;;;1046671;28;20539;-66
2022/07/09 01:34:02;;;;;;;6.25;3.95;;;21.80;99.90;;;;;;1046455;28;20027;-66
2022/07/09 01:34:33;;;;;;;3.90;3.30;;;21.80;99.90;;;;;;1046867;28;20044;-67
2022/07/09 01:35:04;;;;;;;4.43;3.23;;;21.80;99.90;;;;;;1046480;28;20021;-66
2022/07/09 01:35:34;;;;;;;4.00;3.30;;;21.80;99.90;;;;;;1046701;28;20020;-66
2022/07/09 01:36:06;;;;;;;3.85;3.22;;;21.80;99.90;;;;;;1042256;28;20025;-66
2022/07/09 01:36:37;;;;;;;4.20;3.58;;;21.80;99.90;;;;;;1043074;28;20021;-67
2022/07/09 01:37:08;;;;;;;4.70;3.70;;;21.80;99.90;;;;;;1046402;28;20052;-67
2022/07/09 01:37:38;;;;;;;4.33;3.63;;;21.80;99.90;;;;;;1046627;28;20024;-66
2022/07/09 01:38:09;;;;;;;5.37;3.90;;;21.80;99.90;;;;;;1046566;28;20013;-66
2022/07/09 01:38:40;;;;;;;4.30;3.37;;;21.80;99.90;;;;;;1046701;28;20055;-66
2022/07/09 01:39:11;;;;;;;4.47;3.33;;;21.80;99.90;;;;;;1046282;28;20055;-66
2022/07/09 01:39:49;;;;;;;5.67;4.20;;;21.80;99.90;;;;;;1046830;28;20023;-67
2022/07/09 01:40:21;;;;;;;4.60;3.45;;;21.80;99.90;;;;;;1042120;28;20028;-66
2022/07/09 01:40:52;;;;;;;3.80;3.30;;;21.80;99.90;;;;;;1038567;28;20022;-67
2022/07/09 01:41:23;;;;;;;4.10;3.47;;;21.80;99.90;;;;;;1035682;28;20116;-67
2022/07/09 01:41:54;;;;;;;4.87;3.87;;;21.80;99.90;;;;;;1038680;28;20427;-66
2022/07/09 01:42:24;;;;;;;3.63;3.30;;;21.80;99.90;;;;;;1038520;28;20504;-67
2022/07/09 01:42:55;;;;;;;4.17;3.60;;;21.80;99.90;;;;;;1042444;28;20013;-67
2022/07/09 01:43:25;;;;;;;4.30;3.33;;;21.80;99.90;;;;;;1042459;28;20012;-67
2022/07/09 01:43:56;;;;;;;3.47;3.17;;;21.80;99.90;;;;;;1042698;28;20024;-65
2022/07/09 01:44:27;;;;;;;3.93;3.60;;;21.80;99.90;;;;;;1042524;28;20136;-67
2022/07/09 01:44:57;;;;;;;4.30;3.53;;;21.80;99.90;;;;;;1046754;28;20046;-67
2022/07/09 01:45:28;;;;;;;3.63;3.23;;;21.80;99.90;;;;;;1046656;28;20005;-67
2022/07/09 01:46:00;;;;;;;3.47;3.17;;;21.80;99.90;;;;;;1046708;28;20410;-65
2022/07/09 01:46:31;;;;;;;4.28;3.15;;;21.80;99.90;;;;;;1046674;28;20015;-65
2022/07/09 01:47:01;;;;;;;4.18;3.63;;;21.80;99.90;;;;;;1047389;28;20040;-66
2022/07/09 01:47:32;;;;;;;4.03;3.10;;;21.80;99.90;;;;;;1047394;28;20036;-65
2022/07/09 01:48:03;;;;;;;3.93;3.27;;;21.80;99.90;;;;;;1047553;28;20013;-66
2022/07/09 01:48:35;;;;;;;3.53;3.20;;;21.80;99.90;;;;;;1047161;28;20016;-66
2022/07/09 01:49:06;;;;;;;6.45;3.90;;;21.80;99.90;;;;;;1047462;28;20266;-66
2022/07/09 01:49:37;;;;;;;5.07;3.57;;;21.80;99.90;;;;;;1043059;28;20021;-66
2022/07/09 01:50:08;;;;;;;4.35;3.95;;;21.80;99.90;;;;;;1043373;28;20256;-65
2022/07/09 01:50:39;;;;;;;5.45;4.05;;;21.80;99.90;;;;;;1043332;28;20056;-66
2022/07/09 01:51:11;;;;;;;4.03;3.63;;;21.80;99.90;;;;;;1043633;28;20135;-66
2022/07/09 01:51:42;;;;;;;5.28;3.90;;;21.80;99.90;;;;;;1047245;28;20088;-67
2022/07/09 01:52:13;;;;;;;4.85;4.20;;;21.80;99.90;;;;;;1047403;28;20016;-66
2022/07/09 01:52:44;;;;;;;4.50;3.83;;;21.80;99.90;;;;;;1047456;28;20605;-66
2022/07/09 01:53:15;;;;;;;5.63;3.80;;;21.80;99.90;;;;;;1047511;28;20084;-65
2022/07/09 01:53:46;;;;;;;4.27;3.50;;;21.80;99.90;;;;;;1047221;28;20121;-65
2022/07/09 01:54:16;;;;;;;5.10;4.30;;;21.80;99.90;;;;;;1047330;28;20020;-66
2022/07/09 01:54:47;;;;;;;4.47;3.50;;;21.80;99.90;;;;;;1047344;28;20001;-65
2022/07/09 01:55:18;;;;;;;4.27;3.87;;;21.80;99.90;;;;;;1047378;28;20270;-67
2022/07/09 01:55:48;;;;;;;5.23;3.70;;;21.80;99.90;;;;;;1043416;28;20940;-66
2022/07/09 01:56:19;;;;;;;4.40;3.77;;;21.80;99.90;;;;;;1047519;28;20045;-65
2022/07/09 01:56:49;;;;;;;4.27;3.87;;;21.80;99.90;;;;;;1047290;28;20059;-65
2022/07/09 01:57:20;;;;;;;4.23;3.83;;;21.80;99.90;;;;;;1047542;28;20020;-67
2022/07/09 01:57:50;;;;;;;4.67;3.97;;;21.80;99.90;;;;;;1047782;28;20021;-69
2022/07/09 01:58:21;;;;;;;4.20;3.80;;;21.80;99.90;;;;;;1047770;28;20005;-67
2022/07/09 01:58:52;;;;;;;5.33;4.17;;;21.80;99.90;;;;;;1047658;28;20021;-67
2022/07/09 01:59:22;;;;;;;4.20;3.70;;;21.80;99.90;;;;;;1047834;28;20503;-66
2022/07/09 01:59:53;;;;;;;4.90;3.80;;;21.80;99.90;;;;;;1047050;28;20008;-67
2022/07/09 02:00:24;;;;;;;4.10;3.63;;;21.80;99.90;;;;;;1047552;28;20099;-66
2022/07/09 02:00:54;;;;;;;4.33;3.93;;;21.80;99.90;;;;;;1043135;28;20117;-66
2022/07/09 02:01:25;;;;;;;5.70;3.80;;;21.80;99.90;;;;;;1043414;28;20067;-66
2022/07/09 02:01:55;;;;;;;5.00;4.23;;;21.80;99.90;;;;;;1047427;28;20050;-68
2022/07/09 02:02:26;;;;;;;6.13;4.47;;;21.80;99.90;;;;;;1047394;28;20356;-66
2022/07/09 02:02:57;;;;;;;4.40;3.70;;;21.70;99.90;;;;;;1047491;28;20380;-68
2022/07/09 02:03:28;;;;;;;5.27;4.33;;;21.70;99.90;;;;;;1047632;28;20247;-67
2022/07/09 02:03:58;;;;;;;4.63;3.70;;;21.70;99.90;;;;;;1047624;28;20016;-67
2022/07/09 02:04:29;;;;;;;5.33;4.00;;;21.70;99.90;;;;;;1047183;28;20008;-66
2022/07/09 02:04:59;;;;;;;4.37;3.43;;;21.70;99.90;;;;;;1047302;28;20013;-66
2022/07/09 02:05:30;;;;;;;7.03;4.50;;;21.70;99.90;;;;;;1047303;28;20487;-67
2022/07/09 02:06:01;;;;;;;4.40;3.80;;;21.70;99.90;;;;;;1043243;28;20013;-68
2022/07/09 02:06:32;;;;;;;4.75;3.80;;;21.70;99.90;;;;;;1043170;28;20380;-66
2022/07/09 02:07:03;;;;;;;4.60;3.83;;;21.70;99.90;;;;;;1043290;28;20107;-67
2022/07/09 02:07:33;;;;;;;4.77;4.03;;;21.70;99.90;;;;;;1039066;28;20033;-67
2022/07/09 02:08:04;;;;;;;4.10;3.67;;;21.70;99.90;;;;;;1043467;28;20047;-67
2022/07/09 02:08:34;;;;;;;4.10;3.43;;;21.70;99.90;;;;;;1047186;28;20162;-67
2022/07/09 02:09:05;;;;;;;5.13;4.07;;;21.70;99.90;;;;;;1043387;28;20108;-66
2022/07/09 02:09:36;;;;;;;3.97;3.60;;;21.70;99.90;;;;;;1047041;28;20021;-67
2022/07/09 02:10:07;;;;;;;5.53;4.20;;;21.70;99.90;;;;;;1047451;28;20042;-67
2022/07/09 02:10:38;;;;;;;5.50;4.38;;;21.70;99.90;;;;;;1047151;28;20788;-67
2022/07/09 02:11:08;;;;;;;4.03;3.57;;;21.60;99.90;;;;;;1047504;28;20486;-67
2022/07/09 02:11:39;;;;;;;6.13;4.20;;;21.60;99.90;;;;;;1047138;28;20480;-67
2022/07/09 02:12:10;;;;;;;5.40;3.87;;;21.60;99.90;;;;;;1047312;28;20052;-67
2022/07/09 02:12:41;;;;;;;5.10;3.70;;;21.60;99.90;;;;;;1047181;28;20024;-68
2022/07/09 02:13:15;;;;;;;4.88;3.58;;;21.60;99.90;;;;;;1047347;28;20115;-67
2022/07/09 02:13:45;;;;;;;6.25;3.90;;;21.60;99.90;;;;;;1047388;28;20017;-67
2022/07/09 02:14:16;;;;;;;4.37;3.57;;;21.60;99.90;;;;;;1047357;28;20025;-67
2022/07/09 02:14:47;;;;;;;9.13;4.28;;;21.60;99.90;;;;;;1047342;28;20020;-67
2022/07/09 02:15:18;;;;;;;5.78;4.18;;;21.60;99.90;;;;;;1047221;28;20021;-67
2022/07/09 02:15:49;;;;;;;5.13;4.17;;;21.60;99.90;;;;;;1047437;28;20043;-67
2022/07/09 02:16:19;;;;;;;4.50;4.00;;;21.60;99.90;;;;;;1047281;28;20029;-66
2022/07/09 02:16:50;;;;;;;4.47;3.90;;;21.60;99.90;;;;;;1047257;28;20070;-66
2022/07/09 02:17:20;;;;;;;4.07;3.67;;;21.60;99.90;;;;;;1047402;28;20323;-66
2022/07/09 02:17:51;;;;;;;5.70;3.70;;;21.60;99.90;;;;;;1046422;28;20021;-68
2022/07/09 02:18:22;;;;;;;4.90;4.40;;;21.60;99.90;;;;;;1047365;28;20024;-66
2022/07/09 02:18:53;;;;;;;5.13;4.10;;;21.60;99.90;;;;;;1047015;28;20117;-66
2022/07/09 02:19:24;;;;;;;4.72;3.72;;;21.60;99.90;;;;;;1047170;28;20028;-66
2022/07/09 02:19:54;;;;;;;4.70;3.90;;;21.60;99.90;;;;;;1047114;28;20076;-67
2022/07/09 02:20:25;;;;;;;4.70;4.23;;;21.60;99.90;;;;;;1047387;28;20017;-66
2022/07/09 02:20:56;;;;;;;5.32;4.20;;;21.60;99.90;;;;;;1047217;28;20025;-67
2022/07/09 02:21:27;;;;;;;6.60;4.43;;;21.60;99.90;;;;;;1047435;28;20520;-66
2022/07/09 02:21:58;;;;;;;5.90;4.20;;;21.60;99.90;;;;;;1046911;28;20012;-67
2022/07/09 02:22:28;;;;;;;4.80;3.73;;;21.60;99.90;;;;;;1047639;28;20013;-67
2022/07/09 02:22:59;;;;;;;5.53;3.93;;;21.60;99.90;;;;;;1047036;28;20570;-66
2022/07/09 02:23:29;;;;;;;5.13;4.00;;;21.60;99.90;;;;;;1047294;28;20059;-66
2022/07/09 02:24:02;;;;;;;3.70;3.40;;;21.60;99.90;;;;;;1047276;28;20017;-66
2022/07/09 02:24:33;;;;;;;4.07;3.67;;;21.60;99.90;;;;;;1043313;28;20017;-68
2022/07/09 02:25:04;;;;;;;5.17;3.90;;;21.60;99.90;;;;;;1047214;28;20028;-68
2022/07/09 02:25:34;;;;;;;4.75;4.18;;;21.60;99.90;;;;;;1047276;28;20032;-67
2022/07/09 02:26:05;;;;;;;6.33;4.27;;;21.60;99.90;;;;;;1047451;28;20012;-67
2022/07/09 02:26:36;;;;;;;6.37;4.27;;;21.60;99.90;;;;;;1047174;28;20047;-67
2022/07/09 02:27:06;;;;;;;4.27;3.87;;;21.60;99.90;;;;;;1047397;28;20866;-67
2022/07/09 02:27:37;;;;;;;4.65;4.18;;;21.60;99.90;;;;;;1047039;28;20086;-67
2022/07/09 02:28:08;;;;;;;4.97;4.10;;;21.60;99.90;;;;;;1047241;28;20039;-67
2022/07/09 02:28:38;;;;;;;5.67;3.87;;;21.60;99.90;;;;;;1047216;28;20434;-67
2022/07/09 02:29:09;;;;;;;4.63;3.80;;;21.60;99.90;;;;;;1047151;28;20539;-67
2022/07/09 02:29:40;;;;;;;4.37;3.97;;;21.60;99.90;;;;;;1042938;28;20091;-67
2022/07/09 02:30:10;;;;;;;6.07;4.10;;;21.60;99.90;;;;;;1047220;28;20025;-66
2022/07/09 02:30:42;;;;;;;4.53;3.37;;;21.60;99.90;;;;;;1047012;28;20068;-67
2022/07/09 02:31:13;;;;;;;4.55;4.07;;;21.60;99.90;;;;;;1042603;28;20068;-67
2022/07/09 02:31:43;;;;;;;5.13;4.17;;;21.60;99.90;;;;;;1038903;28;20857;-67
2022/07/09 02:32:14;;;;;;;5.07;3.80;;;21.60;99.90;;;;;;1035143;28;20040;-66
2022/07/09 02:32:44;;;;;;;5.60;4.03;;;21.60;99.90;;;;;;1039033;28;20221;-66
2022/07/09 02:33:15;;;;;;;4.33;3.93;;;21.60;99.90;;;;;;1043179;28;20024;-66
2022/07/09 02:33:45;;;;;;;5.17;3.93;;;21.60;99.90;;;;;;1047139;28;20020;-67
2022/07/09 02:34:16;;;;;;;4.93;4.17;;;21.60;99.90;;;;;;1047128;28;20020;-66
2022/07/09 02:34:47;;;;;;;4.50;4.10;;;21.60;99.90;;;;;;1047120;28;20106;-66
2022/07/09 02:35:18;;;;;;;4.27;3.87;;;21.60;99.90;;;;;;1047253;28;20020;-67
2022/07/09 02:35:48;;;;;;;5.32;3.88;;;21.60;99.90;;;;;;1042916;28;20021;-66
2022/07/09 02:36:19;;;;;;;4.40;3.50;;;21.60;99.90;;;;;;1039080;28;20022;-65
2022/07/09 02:36:51;;;;;;;4.05;3.65;;;21.60;99.90;;;;;;1035370;28;20521;-66
2022/07/09 02:37:22;;;;;;;5.40;4.55;;;21.60;99.90;;;;;;1039230;28;20016;-66
2022/07/09 02:37:53;;;;;;;5.18;3.63;;;21.60;99.90;;;;;;1039102;28;20047;-67
2022/07/09 02:38:24;;;;;;;4.70;4.20;;;21.60;99.90;;;;;;1043011;28;20017;-66
2022/07/09 02:38:54;;;;;;;4.23;3.47;;;21.50;99.90;;;;;;1042809;28;20440;-67
2022/07/09 02:39:25;;;;;;;5.23;4.63;;;21.50;99.90;;;;;;1042955;28;20059;-66
2022/07/09 02:39:55;;;;;;;5.87;3.87;;;21.50;99.90;;;;;;1038988;28;20567;-66
2022/07/09 02:40:26;;;;;;;5.47;4.20;;;21.50;99.90;;;;;;1043220;28;20472;-67
2022/07/09 02:40:56;;;;;;;4.33;3.93;;;21.50;99.90;;;;;;1042916;28;20831;-66
2022/07/09 02:41:27;;;;;;;6.07;4.17;;;21.50;99.90;;;;;;1043665;28;20013;-66
2022/07/09 02:41:58;;;;;;;5.90;4.47;;;21.50;99.90;;;;;;1042873;28;20491;-66